ΕΜΥ, Εθνική Μετεωρολογική Υπηρεσία - Δελτία Καιρού, Προγνώσεις

ΑΕΡΟΝΑΥΤΙΛΙΑ

GREEK AIRPORTS CODES

LGIR 252050Z 18005KT 9999 FEW025 17/14 Q1016 NOSIG=

EUROPEAN AIRPORTS CODES

LFPO 252030Z 19005KT 9999 SCT040 SCT110 16/12 Q1019 NOSIG=